createdAt,value
2023-03-26T00:00:26.525Z,94.46
2023-03-26T00:05:49.672Z,94.43
2023-03-26T00:10:52.580Z,94.54
2023-03-26T00:15:55.625Z,94.01
2023-03-26T00:21:00.249Z,93.53
2023-03-26T00:26:10.580Z,93.51
2023-03-26T00:31:15.275Z,93.52
2023-03-26T00:36:20.160Z,93.03
2023-03-26T00:41:26.376Z,93.10
2023-03-26T00:46:31.623Z,93.19
2023-03-26T00:51:35.121Z,93.00
2023-03-26T00:56:39.119Z,92.87
2023-03-26T01:01:42.385Z,92.71
2023-03-26T01:06:45.283Z,92.66
2023-03-26T01:11:49.819Z,92.59
2023-03-26T01:16:56.292Z,92.74
2023-03-26T01:22:00.861Z,92.75
2023-03-26T01:27:09.921Z,92.44
2023-03-26T01:32:30.985Z,92.75
2023-03-26T01:37:53.527Z,92.96
2023-03-26T01:43:22.177Z,92.97
2023-03-26T01:48:41.338Z,93.00
2023-03-26T01:53:48.049Z,92.96
2023-03-26T01:59:03.844Z,93.23
2023-03-26T02:04:19.182Z,93.11
2023-03-26T02:09:29.080Z,93.21
2023-03-26T02:14:32.081Z,93.43
2023-03-26T02:19:34.828Z,93.50
2023-03-26T02:24:38.948Z,93.57
2023-03-26T02:29:42.692Z,93.57
2023-03-26T02:34:45.890Z,93.52
2023-03-26T02:39:48.627Z,93.50
2023-03-26T02:44:51.391Z,93.63
2023-03-26T02:49:54.284Z,93.44
2023-03-26T02:54:57.626Z,93.63
2023-03-26T03:00:05.144Z,94.30
2023-03-26T03:05:08.540Z,94.34
2023-03-26T03:10:13.946Z,94.73
2023-03-26T03:15:16.777Z,94.96
2023-03-26T03:20:19.619Z,95.60
2023-03-26T03:25:23.472Z,95.96
2023-03-26T03:30:26.291Z,96.36
2023-03-26T03:35:30.340Z,96.31
2023-03-26T03:40:33.223Z,96.65
2023-03-26T03:45:36.335Z,96.57
2023-03-26T03:50:39.092Z,96.44
2023-03-26T03:55:54.409Z,96.30
2023-03-26T04:01:01.018Z,96.62
2023-03-26T04:06:07.056Z,96.69
2023-03-26T04:11:09.935Z,96.61
2023-03-26T04:16:12.883Z,96.92
2023-03-26T04:21:16.047Z,97.37
2023-03-26T04:26:20.040Z,97.37
2023-03-26T04:31:29.476Z,97.49
2023-03-26T04:36:34.454Z,97.66
2023-03-26T04:41:37.533Z,97.89
2023-03-26T04:46:43.863Z,98.04
2023-03-26T04:51:47.574Z,98.16
2023-03-26T04:56:52.359Z,98.21
2023-03-26T05:01:56.967Z,97.80
2023-03-26T05:07:00.900Z,98.10
2023-03-26T05:12:03.921Z,97.90
2023-03-26T05:17:06.697Z,97.41
2023-03-26T05:22:09.495Z,97.51
2023-03-26T05:27:17.077Z,97.32
2023-03-26T05:32:19.890Z,97.32
2023-03-26T05:37:24.690Z,97.35
2023-03-26T05:42:27.533Z,96.60
2023-03-26T05:47:30.311Z,95.74
2023-03-26T05:52:33.595Z,95.35
2023-03-26T05:57:36.741Z,94.38
2023-03-26T06:02:39.721Z,93.82
2023-03-26T06:07:42.669Z,93.76
2023-03-26T06:12:45.496Z,93.09
2023-03-26T06:17:48.520Z,92.57
2023-03-26T06:22:51.420Z,92.32
2023-03-26T06:27:54.174Z,90.66
2023-03-26T06:32:56.979Z,89.38
2023-03-26T06:38:00.100Z,88.05
2023-03-26T06:43:09.667Z,88.40
2023-03-26T06:48:13.590Z,86.89
2023-03-26T06:53:16.388Z,85.69
2023-03-26T06:58:19.390Z,84.90
2023-03-26T07:03:23.636Z,85.06
2023-03-26T07:08:26.760Z,84.71
2023-03-26T07:13:29.617Z,84.46
2023-03-26T07:18:32.789Z,84.90
2023-03-26T07:23:36.330Z,84.61
2023-03-26T07:29:03.699Z,84.79
2023-03-26T07:34:24.675Z,85.12
2023-03-26T07:39:44.890Z,84.80
2023-03-26T07:44:58.701Z,84.77
2023-03-26T07:50:02.560Z,83.80
2023-03-26T07:55:06.434Z,83.07
2023-03-26T08:00:32.312Z,81.86
2023-03-26T08:05:43.844Z,81.70
2023-03-26T08:11:15.881Z,81.93
2023-03-26T08:16:36.846Z,81.23
2023-03-26T08:21:55.732Z,80.13
2023-03-26T08:27:13.600Z,77.86
2023-03-26T08:32:19.266Z,74.14
2023-03-26T08:37:24.036Z,72.31
2023-03-26T08:42:40.827Z,73.00
2023-03-26T08:48:11.502Z,74.06
2023-03-26T08:53:32.320Z,75.34
2023-03-26T08:58:43.976Z,76.54
2023-03-26T09:04:11.880Z,76.76
2023-03-26T09:09:20.607Z,76.12
2023-03-26T09:14:42.368Z,74.57
2023-03-26T09:19:52.648Z,73.20
2023-03-26T09:25:14.439Z,74.71
2023-03-26T09:30:31.928Z,77.65
2023-03-26T09:36:19.857Z,79.60
2023-03-26T09:42:01.130Z,81.41
2023-03-26T09:47:25.464Z,82.96
2023-03-26T09:52:40.574Z,83.69
2023-03-26T09:57:53.995Z,83.24
2023-03-26T10:03:12.276Z,81.16
2023-03-26T10:08:30.232Z,80.35
2023-03-26T10:13:50.526Z,79.00
2023-03-26T10:19:12.331Z,79.00
2023-03-26T10:24:23.972Z,79.63
2023-03-26T10:29:48.549Z,79.22
2023-03-26T10:35:30.437Z,78.02
2023-03-26T10:41:06.846Z,77.52
2023-03-26T10:46:34.358Z,75.07
2023-03-26T10:51:58.562Z,74.66
2023-03-26T10:57:06.848Z,74.84
2023-03-26T11:02:38.572Z,74.62
2023-03-26T11:08:03.845Z,73.08
2023-03-26T11:13:41.801Z,73.98
2023-03-26T11:19:08.265Z,75.05
2023-03-26T11:24:49.104Z,74.52
2023-03-26T11:30:26.694Z,73.49
2023-03-26T11:35:45.919Z,72.95
2023-03-26T11:40:56.470Z,73.63
2023-03-26T11:46:03.468Z,73.58
2023-03-26T11:51:34.442Z,73.84
2023-03-26T11:57:04.984Z,73.67
2023-03-26T12:02:12.208Z,72.90
2023-03-26T12:07:33.108Z,70.61
2023-03-26T12:12:41.924Z,71.07
2023-03-26T12:17:47.407Z,72.72
2023-03-26T12:22:52.383Z,74.00
2023-03-26T12:28:02.957Z,77.18
2023-03-26T12:33:40.403Z,81.14
2023-03-26T12:38:43.338Z,82.48
2023-03-26T12:44:54.976Z,84.15
2023-03-26T12:49:45.016Z,83.69
2023-03-26T12:54:56.933Z,83.65
2023-03-26T13:00:37.645Z,84.42
2023-03-26T13:05:55.749Z,84.41
2023-03-26T13:11:20.991Z,83.96
2023-03-26T13:16:29.984Z,82.95
2023-03-26T13:22:01.116Z,81.79
2023-03-26T13:27:27.821Z,82.32
2023-03-26T13:33:03.398Z,80.70
2023-03-26T13:38:30.096Z,80.42
2023-03-26T13:43:54.921Z,80.56
2023-03-26T13:49:10.767Z,79.96
2023-03-26T13:54:37.221Z,78.63
2023-03-26T14:00:00.587Z,78.76
2023-03-26T14:05:30.859Z,78.38
2023-03-26T14:10:40.806Z,76.48
2023-03-26T14:15:48.069Z,77.27
2023-03-26T14:21:28.961Z,75.63
2023-03-26T14:26:37.971Z,75.28
2023-03-26T14:32:06.857Z,74.54
2023-03-26T14:37:39.677Z,75.35
2023-03-26T14:42:56.587Z,75.46
2023-03-26T14:48:28.962Z,75.34
2023-03-26T14:53:37.301Z,73.45
2023-03-26T14:59:14.628Z,75.13
2023-03-26T15:04:41.689Z,75.59
2023-03-26T15:10:22.755Z,74.82
2023-03-26T15:15:38.453Z,73.43
2023-03-26T15:21:10.307Z,73.34
2023-03-26T15:26:23.496Z,73.44
2023-03-26T15:31:43.289Z,74.39
2023-03-26T15:37:22.499Z,74.56
2023-03-26T15:42:56.630Z,74.45
2023-03-26T15:48:13.017Z,74.74
2023-03-26T15:53:23.609Z,75.67
2023-03-26T15:58:30.874Z,75.03
2023-03-26T16:03:54.874Z,76.41
2023-03-26T16:09:08.115Z,77.61
2023-03-26T16:14:24.688Z,77.93
2023-03-26T16:19:36.495Z,78.89
2023-03-26T16:24:48.414Z,80.00
2023-03-26T16:30:00.683Z,81.03
2023-03-26T16:35:25.522Z,82.02
2023-03-26T16:40:37.777Z,82.55
2023-03-26T16:45:59.222Z,83.14
2023-03-26T16:51:39.283Z,83.52
2023-03-26T16:56:57.620Z,83.78
2023-03-26T17:02:09.575Z,83.78
2023-03-26T17:07:17.840Z,84.25
2023-03-26T17:12:37.022Z,84.71
2023-03-26T17:18:05.388Z,84.68
2023-03-26T17:23:36.006Z,85.43
2023-03-26T17:28:55.308Z,85.70
2023-03-26T17:34:28.585Z,86.11
2023-03-26T17:39:40.396Z,86.49
2023-03-26T17:44:49.065Z,87.05
2023-03-26T17:50:00.295Z,87.44
2023-03-26T17:55:03.826Z,87.34
2023-03-26T18:00:09.413Z,87.67
2023-03-26T18:05:15.424Z,88.10
2023-03-26T18:10:38.812Z,88.66
2023-03-26T18:16:15.523Z,88.69
2023-03-26T18:21:29.520Z,88.71
2023-03-26T18:26:46.096Z,89.37
2023-03-26T18:31:55.501Z,89.69
2023-03-26T18:37:19.634Z,89.78
2023-03-26T18:42:24.440Z,89.86
2023-03-26T18:47:30.479Z,90.10
2023-03-26T18:52:33.497Z,89.87
2023-03-26T18:57:36.814Z,90.18
2023-03-26T19:02:39.754Z,90.11
2023-03-26T19:07:46.638Z,90.27
2023-03-26T19:12:58.133Z,90.80
2023-03-26T19:18:07.561Z,91.80
2023-03-26T19:23:15.381Z,92.00
2023-03-26T19:28:33.616Z,90.89
2023-03-26T19:33:39.409Z,89.48
2023-03-26T19:38:54.053Z,88.33
2023-03-26T19:44:01.320Z,87.99
2023-03-26T19:49:04.365Z,88.08
2023-03-26T19:54:16.161Z,87.03
2023-03-26T19:59:19.395Z,86.14
2023-03-26T20:04:22.182Z,85.83
2023-03-26T20:09:25.544Z,85.79
2023-03-26T20:14:31.405Z,86.16
2023-03-26T20:19:35.443Z,86.37
2023-03-26T20:24:38.305Z,86.85
2023-03-26T20:29:42.705Z,87.21
2023-03-26T20:34:49.374Z,87.45
2023-03-26T20:39:52.179Z,87.37
2023-03-26T20:44:55.141Z,87.01
2023-03-26T20:49:57.917Z,86.47
2023-03-26T20:55:00.686Z,85.90
2023-03-26T21:00:09.236Z,84.69
2023-03-26T21:05:24.211Z,84.11
2023-03-26T21:10:30.785Z,83.93
2023-03-26T21:15:34.336Z,84.38
2023-03-26T21:20:37.967Z,84.37
2023-03-26T21:25:55.840Z,84.82
2023-03-26T21:31:01.377Z,84.96
2023-03-26T21:36:04.617Z,85.09
2023-03-26T21:41:07.850Z,85.38
2023-03-26T21:46:11.825Z,85.42
2023-03-26T21:51:14.999Z,85.63
2023-03-26T21:56:49.948Z,85.51
2023-03-26T22:02:04.621Z,85.49
2023-03-26T22:07:14.684Z,85.42
2023-03-26T22:12:18.241Z,86.01
2023-03-26T22:17:22.677Z,86.18
2023-03-26T22:22:26.317Z,86.06
2023-03-26T22:27:29.149Z,85.89
2023-03-26T22:32:34.366Z,85.74
2023-03-26T22:37:37.846Z,85.41
2023-03-26T22:42:41.573Z,85.87
2023-03-26T22:47:45.067Z,85.79
2023-03-26T22:52:50.377Z,86.37
2023-03-26T22:57:53.290Z,86.45
2023-03-26T23:03:00.411Z,86.59
2023-03-26T23:08:04.310Z,86.84
2023-03-26T23:13:07.570Z,86.58
2023-03-26T23:18:12.052Z,86.54
2023-03-26T23:23:14.819Z,86.45
2023-03-26T23:28:18.336Z,86.61
2023-03-26T23:33:23.002Z,86.75
2023-03-26T23:38:29.264Z,86.96
2023-03-26T23:43:55.495Z,87.74
2023-03-26T23:49:05.144Z,88.00
2023-03-26T23:54:08.868Z,87.83
2023-03-26T23:59:11.772Z,87.58
